Time;durP1;ratioP1;P1;durP2;ratioP2;P2;SDS_P1;SDS_P2;PMS_P1;PMS_P2;Temp;Humidity;BMP_temperature;BMP_pressure;BME280_temperature;BME280_humidity;BME280_pressure;Samples;Min_cycle;Max_cycle;Signal;HPM_P1;HPM_P2
2022/11/07 00:02:17;;;;;;;;;;;15.50;94.10;;;;;;5112189;28;20395;-65
2022/11/07 00:04:43;;;;;;;;;;;15.50;94.10;;;;;;5113185;28;19946;-65
2022/11/07 00:07:08;;;;;;;;;;;15.60;94.20;;;;;;5113191;28;19950;-64
2022/11/07 00:09:34;;;;;;;;;;;15.40;94.10;;;;;;5114876;28;19923;-64
2022/11/07 00:12:00;;;;;;;;;;;15.60;94.20;;;;;;5113147;28;19928;-65
2022/11/07 00:14:25;;;;;;;;;;;15.60;94.20;;;;;;5113230;28;19923;-65
2022/11/07 00:16:51;;;;;;;;;;;15.70;94.30;;;;;;5114259;28;20269;-65
2022/11/07 00:19:18;;;;;;;;;;;15.60;94.20;;;;;;5113365;28;19975;-65
2022/11/07 00:21:43;;;;;;;;;;;15.70;94.20;;;;;;5094747;28;19927;-65
2022/11/07 00:24:09;;;;;;;;;;;15.70;94.30;;;;;;5112042;28;20300;-67
2022/11/07 00:26:35;;;;;;;;;;;15.70;94.40;;;;;;5113108;28;20288;-65
2022/11/07 00:29:01;;;;;;;;;;;15.60;94.40;;;;;;5113411;28;19989;-65
2022/11/07 00:31:26;;;;;;;;;;;15.60;94.40;;;;;;5113037;28;20404;-65
2022/11/07 00:33:52;;;;;;;;;;;15.80;94.40;;;;;;5110587;28;19923;-66
2022/11/07 00:36:22;;;;;;;;;;;15.70;94.30;;;;;;5111725;28;20018;-65
2022/11/07 00:38:47;;;;;;;;;;;15.90;94.40;;;;;;5109048;28;19924;-67
2022/11/07 00:41:13;;;;;;;;;;;15.60;94.40;;;;;;5094058;28;19993;-65
2022/11/07 00:43:39;;;;;;;;;;;15.60;94.40;;;;;;5105202;28;20313;-65
2022/11/07 00:46:05;;;;;;;;;;;15.60;94.40;;;;;;5114427;28;19920;-65
2022/11/07 00:48:30;;;;;;;;;;;15.70;94.40;;;;;;5113171;28;20369;-65
2022/11/07 00:50:56;;;;;;;;;;;15.50;94.40;;;;;;5112805;28;20373;-65
2022/11/07 00:53:22;;;;;;;;;;;15.60;94.40;;;;;;5111795;28;19931;-65
2022/11/07 00:55:47;;;;;;;;;;;15.60;94.40;;;;;;5112105;28;19981;-64
2022/11/07 00:58:13;;;;;;;;;;;15.50;94.40;;;;;;5112134;28;20318;-65
2022/11/07 01:00:39;;;;;;;;;;;15.80;94.50;;;;;;5112913;28;19927;-65
2022/11/07 01:05:58;;;;;;;;;;;15.60;94.50;;;;;;5114106;28;19951;-65
2022/11/07 01:08:24;;;;;;;;;;;15.60;93.90;;;;;;5114230;28;19924;-65
2022/11/07 01:10:49;;;;;;;;;;;15.60;94.50;;;;;;5112481;28;19931;-65
2022/11/07 01:13:15;;;;;;;;;;;15.60;94.50;;;;;;5112660;28;19924;-65
2022/11/07 01:15:41;;;;;;;;;;;15.80;94.60;;;;;;5113338;28;20015;-66
2022/11/07 01:18:06;;;;;;;;;;;15.90;94.60;;;;;;5113816;28;19923;-65
2022/11/07 01:20:32;;;;;;;;;;;15.80;94.60;;;;;;5113805;28;19927;-67
2022/11/07 01:22:57;;;;;;;;;;;15.90;94.60;;;;;;5114427;28;19923;-65
2022/11/07 01:25:23;;;;;;;;;;;15.60;94.50;;;;;;5112896;28;20308;-65
2022/11/07 01:27:49;;;;;;;;;;;16.00;94.70;;;;;;5110472;28;19990;-64
2022/11/07 01:30:14;;;;;;;;;;;15.60;94.60;;;;;;5101935;28;20027;-65
2022/11/07 01:32:40;;;;;;;;;;;15.60;94.60;;;;;;5113928;28;19924;-66
2022/11/07 01:35:06;;;;;;;;;;;15.80;94.70;;;;;;5113209;28;19931;-65
2022/11/07 01:37:31;;;;;;;;;;;15.80;94.70;;;;;;5115411;28;19946;-64
2022/11/07 01:39:57;;;;;;;;;;;16.00;94.80;;;;;;5117348;28;20270;-65
2022/11/07 01:42:23;;;;;;;;;;;15.80;94.70;;;;;;5116326;28;20327;-65
2022/11/07 01:44:58;;;;;;;;;;;15.70;94.70;;;;;;5111969;28;19928;-65
2022/11/07 01:47:25;;;;;;;;;;;15.80;94.80;;;;;;5095908;28;19924;-65
2022/11/07 01:49:51;;;;;;;;;;;15.60;94.70;;;;;;5095874;28;19953;-64
2022/11/07 01:52:18;;;;;;;;;;;15.60;94.70;;;;;;5095463;28;20480;-64
2022/11/07 01:54:47;;;;;;;;;;;15.80;94.80;;;;;;5111109;28;19938;-65
2022/11/07 01:57:14;;;;;;;;;;;15.70;94.80;;;;;;5115721;28;19923;-65
2022/11/07 01:59:39;;;;;;;;;;;15.70;94.80;;;;;;5098802;28;20296;-65
2022/11/07 02:02:05;;;;;;;;;;;15.70;94.80;;;;;;5111259;28;19960;-65
2022/11/07 02:04:31;;;;;;;;;;;15.60;94.70;;;;;;5082213;28;19930;-65
2022/11/07 02:07:00;;;;;;;;;;;15.70;94.70;;;;;;5114255;28;20006;-64
2022/11/07 02:09:26;;;;;;;;;;;15.70;94.80;;;;;;5117201;28;19924;-67
2022/11/07 02:11:52;;;;;;;;;;;15.70;94.90;;;;;;5117028;28;20317;-66
2022/11/07 02:14:17;;;;;;;;;;;15.70;94.80;;;;;;5116989;28;20011;-64
2022/11/07 02:16:43;;;;;;;;;;;15.90;94.90;;;;;;5115456;28;20377;-65
2022/11/07 02:19:17;;;;;;;;;;;15.80;94.90;;;;;;5110736;28;19943;-64
2022/11/07 02:21:43;;;;;;;;;;;;;;;;;;5114886;28;19923;-66
2022/11/07 02:24:09;;;;;;;;;;;15.90;94.90;;;;;;5114084;28;19928;-64
2022/11/07 02:26:35;;;;;;;;;;;15.80;94.90;;;;;;5115605;28;19969;-64
2022/11/07 02:29:01;;;;;;;;;;;15.80;94.90;;;;;;5115540;28;20054;-65
2022/11/07 02:31:26;;;;;;;;;;;15.80;94.90;;;;;;5098191;28;20399;-65
2022/11/07 02:33:52;;;;;;;;;;;15.80;94.90;;;;;;5115853;28;20010;-65
2022/11/07 02:36:18;;;;;;;;;;;15.70;94.90;;;;;;5108438;28;19946;-66
2022/11/07 02:38:44;;;;;;;;;;;15.70;94.90;;;;;;5094938;28;19998;-65
2022/11/07 02:41:11;;;;;;;;;;;15.80;94.90;;;;;;5096084;28;19977;-65
2022/11/07 02:43:37;;;;;;;;;;;15.90;95.00;;;;;;5094900;28;19977;-65
2022/11/07 02:46:03;;;;;;;;;;;15.70;94.90;;;;;;5089886;28;19924;-64
2022/11/07 02:48:30;;;;;;;;;;;15.80;94.90;;;;;;5095524;28;20034;-65
2022/11/07 02:50:56;;;;;;;;;;;15.80;95.00;;;;;;5115462;28;19924;-64
2022/11/07 02:53:22;;;;;;;;;;;16.00;95.00;;;;;;5107867;28;19978;-66
2022/11/07 02:55:47;;;;;;;;;;;15.60;94.90;;;;;;5107205;28;19923;-67
2022/11/07 02:58:13;;;;;;;;;;;15.80;95.00;;;;;;5116121;28;20389;-68
2022/11/07 03:00:38;;;;;;;;;;;15.80;95.00;;;;;;5114793;28;19931;-67
2022/11/07 03:03:04;;;;;;;;;;;15.70;95.00;;;;;;5114755;28;20334;-68
2022/11/07 03:05:30;;;;;;;;;;;15.50;95.00;;;;;;5096657;28;19924;-68
2022/11/07 03:07:55;;;;;;;;;;;15.80;95.00;;;;;;5114565;28;20304;-68
2022/11/07 03:10:21;;;;;;;;;;;15.80;95.00;;;;;;5107932;28;19920;-65
2022/11/07 03:12:46;;;;;;;;;;;15.90;95.10;;;;;;5094210;28;20404;-64
2022/11/07 03:15:12;;;;;;;;;;;16.10;95.10;;;;;;5100127;28;19927;-65
2022/11/07 03:17:38;;;;;;;;;;;15.80;95.10;;;;;;5115715;28;20028;-65
2022/11/07 03:20:04;;;;;;;;;;;15.80;95.10;;;;;;5114424;28;19924;-64
2022/11/07 03:22:30;;;;;;;;;;;15.70;95.10;;;;;;5115889;28;19923;-65
2022/11/07 03:24:55;;;;;;;;;;;15.70;95.10;;;;;;5113946;28;19928;-65
2022/11/07 03:27:21;;;;;;;;;;;15.90;95.10;;;;;;5104804;28;19924;-68
2022/11/07 03:29:47;;;;;;;;;;;16.00;95.20;;;;;;5076787;28;19930;-66
2022/11/07 03:32:12;;;;;;;;;;;15.70;95.10;;;;;;5104449;28;19924;-65
2022/11/07 03:34:38;;;;;;;;;;;15.80;95.10;;;;;;5086240;28;19927;-66
2022/11/07 03:37:04;;;;;;;;;;;15.70;95.10;;;;;;5115114;28;19963;-64
2022/11/07 03:39:29;;;;;;;;;;;16.00;95.30;;;;;;5114103;28;20363;-65
2022/11/07 03:41:55;;;;;;;;;;;15.70;95.20;;;;;;5112166;28;20416;-65
2022/11/07 03:44:21;;;;;;;;;;;15.70;95.10;;;;;;5108817;28;19924;-64
2022/11/07 03:46:46;;;;;;;;;;;15.90;95.30;;;;;;5111452;28;20381;-65
2022/11/07 03:49:12;;;;;;;;;;;15.80;95.20;;;;;;5110994;28;20433;-65
2022/11/07 03:51:37;;;;;;;;;;;15.90;95.30;;;;;;5112803;28;19923;-64
2022/11/07 03:54:03;;;;;;;;;;;15.80;95.30;;;;;;5113544;28;19947;-64
2022/11/07 03:56:29;;;;;;;;;;;15.80;95.30;;;;;;5112667;28;19923;-65
2022/11/07 03:58:54;;;;;;;;;;;16.00;95.30;;;;;;5111826;28;19942;-64
2022/11/07 04:01:20;;;;;;;;;;;15.80;95.20;;;;;;5106108;28;20016;-65
2022/11/07 04:03:45;;;;;;;;;;;16.10;95.30;;;;;;5111003;28;19928;-64
2022/11/07 04:06:11;;;;;;;;;;;15.90;95.20;;;;;;5112399;28;19919;-65
2022/11/07 04:08:37;;;;;;;;;;;15.90;95.30;;;;;;5113700;28;19931;-65
2022/11/07 04:11:02;;;;;;;;;;;16.00;95.30;;;;;;5113373;28;19924;-65
2022/11/07 04:18:56;;;;;;;;;;;15.70;95.20;;;;;;5098968;28;19924;-65
2022/11/07 04:21:22;;;;;;;;;;;15.80;95.20;;;;;;5089263;28;20011;-65
2022/11/07 04:23:48;;;;;;;;;;;15.80;95.30;;;;;;5112382;28;19931;-65
2022/11/07 04:28:58;;;;;;;;;;;15.80;95.30;;;;;;5097855;28;19964;-64
2022/11/07 04:31:23;;;;;;;;;;;16.10;95.30;;;;;;5109191;28;20024;-65
2022/11/07 04:33:49;;;;;;;;;;;15.80;95.30;;;;;;5112932;28;19969;-65
2022/11/07 04:36:15;;;;;;;;;;;15.90;95.30;;;;;;5102011;28;19947;-65
2022/11/07 04:38:40;;;;;;;;;;;15.70;95.00;;;;;;5112201;28;20018;-66
2022/11/07 04:41:15;;;;;;;;;;;16.00;95.30;;;;;;5110945;28;20022;-65
2022/11/07 04:43:41;;;;;;;;;;;15.80;95.30;;;;;;5108057;28;19924;-65
2022/11/07 04:46:06;;;;;;;;;;;15.70;95.30;;;;;;5112063;28;20019;-65
2022/11/07 04:48:32;;;;;;;;;;;15.70;95.30;;;;;;5113140;28;19978;-67
2022/11/07 04:50:58;;;;;;;;;;;15.70;95.30;;;;;;5112227;28;20426;-65
2022/11/07 04:53:23;;;;;;;;;;;15.80;95.30;;;;;;5111646;28;19931;-65
2022/11/07 04:55:49;;;;;;;;;;;15.90;95.40;;;;;;5112611;28;19924;-66
2022/11/07 04:58:14;;;;;;;;;;;15.80;95.40;;;;;;5111215;28;19924;-67
2022/11/07 05:00:40;;;;;;;;;;;15.70;95.30;;;;;;5113704;28;20432;-67
2022/11/07 05:03:06;;;;;;;;;;;16.10;95.40;;;;;;5111682;28;19966;-64
2022/11/07 05:05:32;;;;;;;;;;;;;;;;;;5112910;28;19924;-65
2022/11/07 05:08:00;;;;;;;;;;;16.10;95.50;;;;;;5111648;28;19924;-65
2022/11/07 05:10:26;;;;;;;;;;;15.60;95.40;;;;;;5095362;28;20285;-65
2022/11/07 05:12:52;;;;;;;;;;;15.90;95.40;;;;;;5095397;28;19924;-66
2022/11/07 05:15:18;;;;;;;;;;;15.80;95.40;;;;;;5099319;28;19989;-65
2022/11/07 05:17:43;;;;;;;;;;;15.70;95.30;;;;;;5114478;28;19924;-64
2022/11/07 05:20:35;;;;;;;;;;;15.70;95.40;;;;;;5117726;28;19924;-65
2022/11/07 05:23:17;;;;;;;;;;;15.70;95.40;;;;;;5114761;28;20308;-64
2022/11/07 05:25:42;;;;;;;;;;;16.10;95.40;;;;;;5112066;28;19924;-64
2022/11/07 05:28:12;;;;;;;;;;;15.90;95.40;;;;;;5110162;28;19928;-64
2022/11/07 05:30:40;;;;;;;;;;;16.10;95.50;;;;;;5114534;28;19923;-64
2022/11/07 05:33:10;;;;;;;;;;;15.90;95.40;;;;;;5099498;28;19969;-65
2022/11/07 05:35:35;;;;;;;;;;;16.00;95.40;;;;;;5085237;28;19926;-65
2022/11/07 05:38:01;;;;;;;;;;;16.20;95.40;;;;;;5081570;28;19927;-65
2022/11/07 05:40:27;;;;;;;;;;;15.90;95.40;;;;;;5099246;28;19924;-64
2022/11/07 05:42:57;;;;;;;;;;;15.80;95.40;;;;;;5109556;28;19924;-66
2022/11/07 05:45:23;;;;;;;;;;;15.90;95.30;;;;;;5105909;28;20269;-65
2022/11/07 05:47:55;;;;;;;;;;;15.90;95.40;;;;;;5114203;28;19935;-67
2022/11/07 05:50:20;;;;;;;;;;;15.80;95.40;;;;;;5095919;28;20292;-65
2022/11/07 05:52:46;;;;;;;;;;;16.20;95.50;;;;;;5104524;28;19924;-65
2022/11/07 05:55:12;;;;;;;;;;;15.70;95.30;;;;;;5116076;28;19930;-64
2022/11/07 05:57:37;;;;;;;;;;;16.00;95.40;;;;;;5114783;28;19971;-64
2022/11/07 06:00:03;;;;;;;;;;;15.80;95.40;;;;;;5110897;28;19931;-65
2022/11/07 06:02:29;;;;;;;;;;;15.70;95.40;;;;;;5114884;28;19928;-65
2022/11/07 06:04:56;;;;;;;;;;;16.00;95.50;;;;;;5115659;28;19924;-65
2022/11/07 06:07:21;;;;;;;;;;;16.10;95.50;;;;;;5113166;28;20365;-65
2022/11/07 06:09:47;;;;;;;;;;;15.70;95.40;;;;;;5115925;28;20037;-64
2022/11/07 06:12:13;;;;;;;;;;;15.90;95.40;;;;;;5112802;28;20020;-68
2022/11/07 06:14:38;;;;;;;;;;;15.80;95.50;;;;;;5114147;28;19931;-68
2022/11/07 06:17:04;;;;;;;;;;;16.00;95.50;;;;;;5110447;28;20006;-69
2022/11/07 06:19:29;;;;;;;;;;;15.80;95.50;;;;;;5113755;28;19924;-65
2022/11/07 06:21:55;;;;;;;;;;;15.90;95.50;;;;;;5115183;28;19971;-65
2022/11/07 06:24:21;;;;;;;;;;;16.00;95.20;;;;;;5113313;28;19919;-65
2022/11/07 06:26:46;;;;;;;;;;;15.80;95.50;;;;;;5115112;28;19928;-66
2022/11/07 06:29:12;;;;;;;;;;;16.00;95.60;;;;;;5100522;28;20344;-64
2022/11/07 06:31:37;;;;;;;;;;;15.80;95.50;;;;;;5094804;28;19934;-65
2022/11/07 06:34:03;;;;;;;;;;;15.90;95.50;;;;;;5101512;28;20302;-65
2022/11/07 06:36:29;;;;;;;;;;;15.80;95.50;;;;;;5098262;28;19932;-65
2022/11/07 06:38:54;;;;;;;;;;;15.90;95.50;;;;;;5112939;28;19923;-64
2022/11/07 06:41:20;;;;;;;;;;;16.00;95.50;;;;;;5115554;28;20381;-65
2022/11/07 06:43:46;;;;;;;;;;;16.00;95.50;;;;;;5113930;28;19958;-64
2022/11/07 06:46:11;;;;;;;;;;;15.90;95.50;;;;;;5114806;28;19920;-65
2022/11/07 06:48:37;;;;;;;;;;;15.90;95.50;;;;;;5114706;28;19932;-65
2022/11/07 06:51:03;;;;;;;;;;;15.90;95.50;;;;;;5110012;28;20374;-66
2022/11/07 06:53:29;;;;;;;;;;;;;;;;;;5096245;28;19932;-67
2022/11/07 06:55:55;;;;;;;;;;;15.80;95.60;;;;;;5111819;28;19924;-66
2022/11/07 06:58:21;;;;;;;;;;;15.90;95.70;;;;;;5115741;28;19924;-66
2022/11/07 07:00:46;;;;;;;;;;;16.20;95.70;;;;;;5113560;28;19924;-66
2022/11/07 07:03:12;;;;;;;;;;;16.20;95.70;;;;;;5113806;28;19923;-67
2022/11/07 07:05:38;;;;;;;;;;;15.90;95.60;;;;;;5113534;28;19932;-66
2022/11/07 07:08:04;;;;;;;;;;;16.30;95.80;;;;;;5097311;28;19924;-66
2022/11/07 07:10:29;;;;;;;;;;;16.20;95.60;;;;;;5092342;28;19947;-65
2022/11/07 07:12:55;;;;;;;;;;;16.30;95.60;;;;;;5110623;28;19924;-67
2022/11/07 07:15:21;;;;;;;;;;;;;;;;;;5113006;28;19923;-69
2022/11/07 07:17:47;;;;;;;;;;;16.10;95.50;;;;;;5113765;28;19924;-66
2022/11/07 07:20:13;;;;;;;;;;;16.10;95.50;;;;;;5094872;28;20310;-65
2022/11/07 07:22:38;;;;;;;;;;;16.30;95.50;;;;;;5107982;28;19995;-66
2022/11/07 07:25:04;;;;;;;;;;;16.40;95.60;;;;;;5108239;28;19931;-65
2022/11/07 07:27:30;;;;;;;;;;;16.00;95.50;;;;;;5104797;28;19924;-66
2022/11/07 07:29:56;;;;;;;;;;;16.10;95.50;;;;;;5096284;28;19924;-66
2022/11/07 07:32:24;;;;;;;;;;;16.30;95.60;;;;;;5113895;28;20068;-66
2022/11/07 07:34:49;;;;;;;;;;;16.40;95.60;;;;;;5111834;28;20014;-66
2022/11/07 07:37:15;;;;;;;;;;;16.10;95.50;;;;;;5113756;28;20057;-68
2022/11/07 07:39:41;;;;;;;;;;;16.30;95.60;;;;;;5113784;28;20391;-67
2022/11/07 07:42:06;;;;;;;;;;;16.30;95.50;;;;;;5107824;28;20010;-65
2022/11/07 07:44:32;;;;;;;;;;;16.30;95.60;;;;;;5089838;28;19927;-67
2022/11/07 07:46:58;;;;;;;;;;;16.40;95.60;;;;;;5113415;28;19928;-67
2022/11/07 07:49:23;;;;;;;;;;;16.20;95.60;;;;;;5113659;28;19924;-71
2022/11/07 07:51:49;;;;;;;;;;;16.20;95.60;;;;;;5115188;28;19924;-69
2022/11/07 07:54:15;;;;;;;;;;;16.20;95.60;;;;;;5114086;28;19919;-75
2022/11/07 07:56:40;;;;;;;;;;;16.10;95.50;;;;;;5114730;28;19927;-75
2022/11/07 07:59:06;;;;;;;;;;;16.00;95.50;;;;;;5107299;28;19931;-73
2022/11/07 08:01:32;;;;;;;;;;;16.10;95.50;;;;;;5093406;28;19950;-74
2022/11/07 08:03:57;;;;;;;;;;;16.30;95.50;;;;;;5096545;28;19980;-67
2022/11/07 08:06:23;;;;;;;;;;;16.50;95.60;;;;;;5109488;28;19924;-67
2022/11/07 08:08:49;;;;;;;;;;;16.40;95.50;;;;;;5111281;28;19977;-68
2022/11/07 08:11:14;;;;;;;;;;;16.30;95.50;;;;;;5114496;28;19982;-68
2022/11/07 08:13:40;;;;;;;;;;;16.20;95.50;;;;;;5097240;28;20023;-74
2022/11/07 08:16:09;;;;;;;;;;;;;;;;;;5108783;28;20357;-73
2022/11/07 08:18:41;;;;;;;;;;;16.50;95.60;;;;;;5114368;28;19977;-75
2022/11/07 08:21:06;;;;;;;;;;;16.30;95.50;;;;;;5109779;28;20014;-74
2022/11/07 08:23:32;;;;;;;;;;;16.30;95.50;;;;;;5113214;28;19967;-73
2022/11/07 08:25:58;;;;;;;;;;;16.20;95.50;;;;;;5113966;28;19927;-72
2022/11/07 08:28:27;;;;;;;;;;;16.20;95.60;;;;;;5113116;28;20022;-75
2022/11/07 08:30:54;;;;;;;;;;;16.20;95.50;;;;;;5114588;28;19946;-75
2022/11/07 08:33:19;;;;;;;;;;;16.30;95.50;;;;;;5112999;28;20307;-68
2022/11/07 08:35:45;;;;;;;;;;;16.30;95.60;;;;;;5111779;28;19980;-66
2022/11/07 08:38:10;;;;;;;;;;;16.30;95.60;;;;;;5112928;28;19973;-66
2022/11/07 08:40:36;;;;;;;;;;;16.00;95.50;;;;;;5112885;28;19961;-68
2022/11/07 08:43:02;;;;;;;;;;;16.30;95.70;;;;;;5095748;28;19926;-71
2022/11/07 08:45:27;;;;;;;;;;;16.30;95.70;;;;;;5112268;28;19950;-76
2022/11/07 08:47:57;;;;;;;;;;;16.00;95.60;;;;;;5100270;28;20377;-66
2022/11/07 08:50:22;;;;;;;;;;;16.40;95.70;;;;;;5109033;28;19975;-65
2022/11/07 08:52:48;;;;;;;;;;;16.20;95.60;;;;;;5096777;28;19975;-65
2022/11/07 08:55:13;;;;;;;;;;;16.20;95.60;;;;;;5102926;28;20428;-65
2022/11/07 08:57:39;;;;;;;;;;;16.10;95.60;;;;;;5118062;28;20015;-66
2022/11/07 09:00:05;;;;;;;;;;;16.20;95.70;;;;;;5116429;28;19959;-66
2022/11/07 09:02:31;;;;;;;;;;;16.30;95.70;;;;;;5118506;28;19927;-65
2022/11/07 09:04:56;;;;;;;;;;;16.30;95.70;;;;;;5115956;28;19930;-67
2022/11/07 09:07:22;;;;;;;;;;;16.10;95.70;;;;;;5108332;28;19924;-65
2022/11/07 09:09:48;;;;;;;;;;;16.30;95.80;;;;;;5096373;28;19928;-65
2022/11/07 09:12:13;;;;;;;;;;;16.20;95.80;;;;;;5096293;28;19990;-66
2022/11/07 09:14:39;;;;;;;;;;;16.30;95.80;;;;;;5099174;28;19924;-66
2022/11/07 09:17:04;;;;;;;;;;;16.30;95.80;;;;;;5117774;28;19975;-66
2022/11/07 09:19:30;;;;;;;;;;;16.40;95.80;;;;;;5116519;28;19978;-66
2022/11/07 09:21:56;;;;;;;;;;;16.30;95.80;;;;;;5117781;28;19923;-67
2022/11/07 09:24:21;;;;;;;;;;;16.30;96.00;;;;;;5116377;28;20274;-65
2022/11/07 09:26:47;;;;;;;;;;;16.40;95.90;;;;;;5112898;28;19924;-66
2022/11/07 09:29:13;;;;;;;;;;;16.30;95.90;;;;;;5109807;28;19928;-67
2022/11/07 09:31:38;;;;;;;;;;;16.50;95.90;;;;;;5114384;28;19993;-67
2022/11/07 09:34:06;;;;;;;;;;;16.40;95.90;;;;;;5116533;28;19924;-67
2022/11/07 09:36:31;;;;;;;;;;;16.50;95.90;;;;;;5116207;28;20356;-66
2022/11/07 09:38:58;;;;;;;;;;;16.50;95.90;;;;;;5115251;28;19967;-66
2022/11/07 09:41:23;;;;;;;;;;;16.40;95.90;;;;;;5108848;27;19920;-66
2022/11/07 09:44:09;;;;;;;;;;;16.70;96.00;;;;;;5097211;28;19969;-66
2022/11/07 09:46:54;;;;;;;;;;;16.60;95.90;;;;;;5086803;28;19986;-66
2022/11/07 09:49:25;;;;;;;;;;;16.30;95.80;;;;;;5114732;28;20449;-66
2022/11/07 09:51:55;;;;;;;;;;;16.50;95.80;;;;;;5115881;28;19924;-67
2022/11/07 09:54:21;;;;;;;;;;;;;;;;;;5099788;28;19969;-66
2022/11/07 09:56:46;;;;;;;;;;;16.50;95.80;;;;;;5114521;28;20330;-67
2022/11/07 09:59:15;;;;;;;;;;;16.20;95.80;;;;;;5099422;28;19931;-67
2022/11/07 10:01:41;;;;;;;;;;;16.60;95.90;;;;;;5111035;28;20003;-67
2022/11/07 10:04:09;;;;;;;;;;;16.30;95.60;;;;;;5088717;28;20450;-67
2022/11/07 10:06:35;;;;;;;;;;;16.40;95.90;;;;;;5115397;28;19924;-66
2022/11/07 10:09:19;;;;;;;;;;;16.70;96.00;;;;;;5115877;28;19924;-67
2022/11/07 10:11:47;;;;;;;;;;;16.50;95.90;;;;;;5117085;28;19979;-67
2022/11/07 10:14:39;;;;;;;;;;;16.50;95.90;;;;;;5098562;28;19930;-66
2022/11/07 10:17:17;;;;;;;;;;;16.80;96.00;;;;;;5100383;28;19924;-67
2022/11/07 10:19:45;;;;;;;;;;;16.70;96.00;;;;;;5116640;28;20373;-66
2022/11/07 10:22:29;;;;;;;;;;;16.70;96.00;;;;;;5115394;28;19971;-68
2022/11/07 10:25:04;;;;;;;;;;;16.70;96.00;;;;;;5098619;28;19946;-66
2022/11/07 10:27:29;;;;;;;;;;;16.70;96.00;;;;;;5098348;28;20282;-65
2022/11/07 10:29:55;;;;;;;;;;;16.50;95.90;;;;;;5117040;28;19949;-68
2022/11/07 10:32:50;;;;;;;;;;;16.70;96.00;;;;;;5107449;28;19924;-67
2022/11/07 10:35:26;;;;;;;;;;;16.30;95.90;;;;;;5098462;28;19924;-67
2022/11/07 10:37:55;;;;;;;;;;;16.60;95.90;;;;;;5077812;28;19924;-66
2022/11/07 10:40:20;;;;;;;;;;;16.50;95.90;;;;;;5078112;28;19967;-65
2022/11/07 10:42:46;;;;;;;;;;;16.60;95.90;;;;;;5077986;28;19998;-66
2022/11/07 10:45:12;;;;;;;;;;;16.80;96.00;;;;;;5077612;28;19975;-69
2022/11/07 10:47:38;;;;;;;;;;;16.40;95.90;;;;;;5078669;28;20024;-67
2022/11/07 10:50:15;;;;;;;;;;;16.50;95.80;;;;;;5102340;28;20439;-70
2022/11/07 10:52:41;;;;;;;;;;;;;;;;;;5091102;28;19924;-68
2022/11/07 10:55:07;;;;;;;;;;;16.60;95.90;;;;;;5112703;28;19924;-71
2022/11/07 10:57:34;;;;;;;;;;;16.60;95.90;;;;;;5100068;28;19963;-67
2022/11/07 11:00:00;;;;;;;;;;;16.60;95.90;;;;;;5096724;28;19923;-70
2022/11/07 11:02:26;;;;;;;;;;;16.50;95.90;;;;;;5096230;28;19931;-68
2022/11/07 11:04:53;;;;;;;;;;;16.90;96.00;;;;;;5097097;28;19923;-68
2022/11/07 11:07:18;;;;;;;;;;;16.90;95.90;;;;;;5112727;28;19930;-69
2022/11/07 11:09:48;;;;;;;;;;;16.90;95.90;;;;;;5112870;28;19924;-67
2022/11/07 11:12:15;;;;;;;;;;;16.70;95.90;;;;;;5084911;28;19970;-67
2022/11/07 11:14:41;;;;;;;;;;;16.90;95.90;;;;;;5112318;28;19935;-67
2022/11/07 11:17:15;;;;;;;;;;;16.90;95.90;;;;;;5105397;28;20339;-67
2022/11/07 11:19:47;;;;;;;;;;;16.90;95.90;;;;;;5088619;28;19980;-68
2022/11/07 11:22:13;;;;;;;;;;;;;;;;;;5094521;28;20301;-67
2022/11/07 11:24:39;;;;;;;;;;;16.90;95.90;;;;;;5113647;28;19924;-67
2022/11/07 11:27:09;;;;;;;;;;;16.70;95.40;;;;;;5111107;28;19930;-68
2022/11/07 11:29:39;;;;;;;;;;;16.70;95.80;;;;;;5095341;28;20129;-67
2022/11/07 11:32:05;;;;;;;;;;;;;;;;;;5115497;28;19931;-68
2022/11/07 11:34:37;;;;;;;;;;;17.00;95.90;;;;;;5115086;28;19931;-67
2022/11/07 11:37:07;;;;;;;;;;;16.80;95.90;;;;;;5095192;28;19923;-67
2022/11/07 11:39:38;;;;;;;;;;;17.00;96.00;;;;;;5095931;28;19923;-67
2022/11/07 11:42:04;;;;;;;;;;;17.10;96.00;;;;;;5103956;28;19930;-66
2022/11/07 11:44:37;;;;;;;;;;;17.00;96.00;;;;;;5114095;28;20337;-67
2022/11/07 11:47:03;;;;;;;;;;;;;;;;;;5112293;28;20346;-67
2022/11/07 11:49:31;;;;;;;;;;;16.90;96.00;;;;;;5110037;28;19968;-67
2022/11/07 11:52:07;;;;;;;;;;;17.00;96.00;;;;;;5096686;28;19924;-67
2022/11/07 11:54:32;;;;;;;;;;;16.80;96.00;;;;;;5113602;28;19924;-67
2022/11/07 11:57:00;;;;;;;;;;;16.90;96.00;;;;;;5108458;28;19924;-67
2022/11/07 11:59:48;;;;;;;;;;;16.90;96.00;;;;;;5109498;28;19978;-67
2022/11/07 12:02:20;;;;;;;;;;;16.90;96.00;;;;;;5092652;28;19924;-68
2022/11/07 12:04:46;;;;;;;;;;;17.10;96.00;;;;;;5092799;28;19969;-67
2022/11/07 12:07:24;;;;;;;;;;;16.80;96.00;;;;;;5093825;28;19920;-68
2022/11/07 12:10:00;;;;;;;;;;;17.10;96.10;;;;;;5104434;27;19924;-66
2022/11/07 12:12:31;;;;;;;;;;;16.70;96.00;;;;;;5095142;28;20030;-67
2022/11/07 12:15:16;;;;;;;;;;;17.00;96.10;;;;;;5087081;28;20405;-67
2022/11/07 12:17:42;;;;;;;;;;;17.10;96.20;;;;;;5113031;28;20365;-67
2022/11/07 12:20:26;;;;;;;;;;;16.80;96.10;;;;;;5109928;27;19928;-68
2022/11/07 12:23:04;;;;;;;;;;;16.60;96.10;;;;;;5114008;27;20015;-69
2022/11/07 12:25:42;;;;;;;;;;;16.90;96.20;;;;;;5112884;28;19931;-67
2022/11/07 12:28:11;;;;;;;;;;;16.90;96.40;;;;;;5095376;28;20032;-67
2022/11/07 12:30:55;;;;;;;;;;;16.70;96.30;;;;;;5105042;28;19932;-67
2022/11/07 12:33:36;;;;;;;;;;;16.80;96.50;;;;;;5111413;28;20040;-66
2022/11/07 12:36:09;;;;;;;;;;;16.70;96.50;;;;;;5093752;28;19993;-66
2022/11/07 12:38:38;;;;;;;;;;;16.80;96.50;;;;;;5092642;28;19924;-66
2022/11/07 12:41:04;;;;;;;;;;;16.70;96.50;;;;;;5093884;28;19954;-67
2022/11/07 12:43:29;;;;;;;;;;;16.70;96.50;;;;;;5094089;28;19924;-66
2022/11/07 12:46:01;;;;;;;;;;;17.00;96.70;;;;;;5093835;28;20029;-66
2022/11/07 12:48:46;;;;;;;;;;;16.80;96.50;;;;;;5101933;28;19919;-66
2022/11/07 12:51:14;;;;;;;;;;;16.90;96.50;;;;;;5112892;28;20018;-66
2022/11/07 12:53:58;;;;;;;;;;;16.90;96.50;;;;;;5112228;28;19930;-66
2022/11/07 12:56:26;;;;;;;;;;;16.70;96.40;;;;;;5096707;28;19923;-66
2022/11/07 12:58:52;;;;;;;;;;;17.00;96.50;;;;;;5092807;28;19924;-67
2022/11/07 13:01:18;;;;;;;;;;;16.90;96.50;;;;;;5093980;28;19928;-66
2022/11/07 13:03:50;;;;;;;;;;;16.80;96.50;;;;;;5100705;28;19923;-66
2022/11/07 13:06:24;;;;;;;;;;;16.90;96.50;;;;;;5098099;28;19977;-66
2022/11/07 13:08:56;;;;;;;;;;;17.00;96.50;;;;;;5087012;28;20335;-66
2022/11/07 13:11:22;;;;;;;;;;;16.90;96.50;;;;;;5106326;28;19924;-66
2022/11/07 13:13:47;;;;;;;;;;;16.80;96.40;;;;;;5114186;28;19934;-66
2022/11/07 13:16:19;;;;;;;;;;;17.20;96.70;;;;;;5095572;28;20296;-66
2022/11/07 13:18:44;;;;;;;;;;;16.90;96.50;;;;;;5111821;28;19927;-66
2022/11/07 13:21:10;;;;;;;;;;;16.90;96.50;;;;;;5114424;28;19924;-66
2022/11/07 13:23:36;;;;;;;;;;;17.10;96.60;;;;;;5095253;28;19931;-66
2022/11/07 13:26:02;;;;;;;;;;;17.20;96.70;;;;;;5092091;28;20377;-66
2022/11/07 13:28:34;;;;;;;;;;;17.10;96.60;;;;;;5092511;28;19935;-67
2022/11/07 13:31:00;;;;;;;;;;;16.90;96.70;;;;;;5093373;28;19976;-66
2022/11/07 13:33:27;;;;;;;;;;;17.20;96.70;;;;;;5096465;28;19977;-66
2022/11/07 13:35:53;;;;;;;;;;;16.90;96.50;;;;;;5097214;28;19924;-66
2022/11/07 13:38:19;;;;;;;;;;;17.20;96.60;;;;;;5097720;28;20384;-66
2022/11/07 13:40:57;;;;;;;;;;;17.00;96.50;;;;;;5099297;28;19928;-66
2022/11/07 13:43:27;;;;;;;;;;;16.90;96.50;;;;;;5097012;28;19924;-66
2022/11/07 13:45:56;;;;;;;;;;;17.10;96.60;;;;;;5096117;28;19931;-66
2022/11/07 13:48:55;;;;;;;;;;;17.00;96.60;;;;;;5096085;28;20293;-65
2022/11/07 13:51:22;;;;;;;;;;;16.90;96.60;;;;;;5034642;28;19931;-65
2022/11/07 13:54:01;;;;;;;;;;;17.10;96.60;;;;;;5036573;28;20306;-66
2022/11/07 13:56:27;;;;;;;;;;;16.80;96.60;;;;;;5037054;28;19925;-65
2022/11/07 13:58:53;;;;;;;;;;;17.00;96.70;;;;;;5037850;28;19964;-65
2022/11/07 14:01:20;;;;;;;;;;;17.00;96.70;;;;;;5038045;28;20018;-66
2022/11/07 14:03:45;;;;;;;;;;;16.80;96.70;;;;;;5054289;28;19932;-66
2022/11/07 14:06:12;;;;;;;;;;;16.90;96.70;;;;;;5036825;28;19925;-65
2022/11/07 14:08:38;;;;;;;;;;;16.90;96.70;;;;;;5037874;28;20317;-65
2022/11/07 14:11:06;;;;;;;;;;;17.10;96.90;;;;;;5021057;28;20402;-66
2022/11/07 14:13:35;;;;;;;;;;;17.00;96.80;;;;;;5054018;28;20297;-66
2022/11/07 14:16:12;;;;;;;;;;;17.10;96.80;;;;;;5036487;28;19931;-66
2022/11/07 14:18:41;;;;;;;;;;;16.90;96.80;;;;;;5020829;28;19925;-66
2022/11/07 14:21:16;;;;;;;;;;;16.90;96.80;;;;;;5054180;28;19925;-66
2022/11/07 14:23:43;;;;;;;;;;;17.00;96.80;;;;;;5038184;28;20493;-65
2022/11/07 14:26:22;;;;;;;;;;;17.00;96.80;;;;;;5045283;28;19924;-66
2022/11/07 14:28:47;;;;;;;;;;;17.10;96.90;;;;;;5096507;28;20321;-66
2022/11/07 14:31:15;;;;;;;;;;;16.90;96.80;;;;;;5092905;28;19931;-66
2022/11/07 14:33:46;;;;;;;;;;;16.80;96.80;;;;;;5109894;27;19924;-66
2022/11/07 14:36:12;;;;;;;;;;;16.90;96.90;;;;;;5094547;28;19924;-65